Map

Track Data

SID SEASON NUMBER BASIN SUBBASIN NAME ISO_TIME NATURE LAT LON WMO_WIND WMO_PRES WMO_AGENCY TRACK_TYPE DIST2LAND LANDFALL IFLAG USA_AGENCY USA_ATCF_ID USA_LAT USA_LON USA_RECORD USA_STATUS USA_WIND USA_PRES USA_SSHS USA_R34_NE USA_R34_SE USA_R34_SW USA_R34_NW USA_R50_NE USA_R50_SE USA_R50_SW USA_R50_NW USA_R64_NE USA_R64_SE USA_R64_SW USA_R64_NW USA_POCI USA_ROCI USA_RMW USA_EYE TOKYO_LAT TOKYO_LON TOKYO_GRADE TOKYO_WIND TOKYO_PRES TOKYO_R50_DIR TOKYO_R50_LONG TOKYO_R50_SHORT TOKYO_R30_DIR TOKYO_R30_LONG TOKYO_R30_SHORT TOKYO_LAND CMA_LAT CMA_LON CMA_CAT CMA_WIND CMA_PRES HKO_LAT HKO_LON HKO_CAT HKO_WIND HKO_PRES NEWDELHI_LAT NEWDELHI_LON NEWDELHI_GRADE NEWDELHI_WIND NEWDELHI_PRES NEWDELHI_CI NEWDELHI_DP NEWDELHI_POCI REUNION_LAT REUNION_LON REUNION_TYPE REUNION_WIND REUNION_PRES REUNION_TNUM REUNION_CI REUNION_RMW REUNION_R34_NE REUNION_R34_SE REUNION_R34_SW REUNION_R34_NW REUNION_R50_NE REUNION_R50_SE REUNION_R50_SW REUNION_R50_NW REUNION_R64_NE REUNION_R64_SE REUNION_R64_SW REUNION_R64_NW BOM_LAT BOM_LON BOM_TYPE BOM_WIND BOM_PRES BOM_TNUM BOM_CI BOM_RMW BOM_R34_NE BOM_R34_SE BOM_R34_SW BOM_R34_NW BOM_R50_NE BOM_R50_SE BOM_R50_SW BOM_R50_NW BOM_R64_NE BOM_R64_SE BOM_R64_SW BOM_R64_NW BOM_ROCI BOM_POCI BOM_EYE BOM_POS_METHOD BOM_PRES_METHOD NADI_LAT NADI_LON NADI_CAT NADI_WIND NADI_PRES WELLINGTON_LAT WELLINGTON_LON WELLINGTON_WIND WELLINGTON_PRES DS824_LAT DS824_LON DS824_STAGE DS824_WIND DS824_PRES TD9636_LAT TD9636_LON TD9636_STAGE TD9636_WIND TD9636_PRES TD9635_LAT TD9635_LON TD9635_WIND TD9635_PRES TD9635_ROCI NEUMANN_LAT NEUMANN_LON NEUMANN_CLASS NEUMANN_WIND NEUMANN_PRES MLC_LAT MLC_LON MLC_CLASS MLC_WIND MLC_PRES USA_GUST BOM_GUST BOM_GUST_PER REUNION_GUST REUNION_GUST_PER USA_SEAHGT USA_SEARAD_NE USA_SEARAD_SE USA_SEARAD_SW USA_SEARAD_NW STORM_SPEED STORM_DIR
1890284N14128 1890 35 WP MM NOT_NAMED 1890-10-10 16:00:00 NR 14.4000 127.700 main 342 291 __________O___ -1 14.4000 127.700 7 33 309
1890284N14128 1890 35 WP MM NOT_NAMED 1890-10-10 18:00:00 NR 15.1057 126.813 main 291 263 __________P___ -1 15.1057 126.813 7 33 309
1890284N14128 1890 35 WP MM NOT_NAMED 1890-10-10 21:00:00 NR 16.1218 125.513 main 268 191 __________P___ -1 16.1218 125.513 7 31 309
1890284N14128 1890 35 WP MM NOT_NAMED 1890-10-11 00:00:00 NR 17.0357 124.315 main 191 110 __________P___ -1 17.0357 124.315 7 27 308
1890284N14128 1890 35 WP MM NOT_NAMED 1890-10-11 03:00:00 NR 17.7921 123.290 main 110 81 __________P___ -1 17.7921 123.290 7 24 308
1890284N14128 1890 35 WP MM NOT_NAMED 1890-10-11 04:00:00 NR 18.0000 123.000 main 81 21 __________O___ -1 18.0000 123.000 4 19 306
1890284N14128 1890 35 WP MM NOT_NAMED 1890-10-11 06:00:00 NR 18.3438 122.505 main 21 10 __________P___ -1 18.3438 122.505 4 15 305
1890284N14128 1890 35 WP MM NOT_NAMED 1890-10-11 09:00:00 NR 18.7115 121.931 main 39 39 __________P___ -1 18.7115 121.931 4 12 302
1890284N14128 1890 35 WP MM NOT_NAMED 1890-10-11 12:00:00 NR 18.9570 121.477 main 56 55 __________P___ -1 18.9570 121.477 4 9 297
1890284N14128 1890 35 WP MM NOT_NAMED 1890-10-11 15:00:00 NR 19.1416 121.052 main 59 67 __________P___ -1 19.1416 121.052 4 9 294
1890284N14128 1890 35 WP MM NOT_NAMED 1890-10-11 16:00:00 NR 19.2000 120.900 main 67 67 __________O___ -1 19.2000 120.900 4 11 295
1890284N14128 1890 35 WP MM NOT_NAMED 1890-10-11 18:00:00 NR 19.3714 120.530 main 94 94 __________P___ -1 19.3714 120.530 4 12 294
1890284N14128 1890 35 WP MM NOT_NAMED 1890-10-11 21:00:00 NR 19.6038 119.957 main 139 146 __________P___ -1 19.6038 119.957 4 12 291
1890284N14128 1890 35 WP MM NOT_NAMED 1890-10-12 00:00:00 NR 19.8013 119.356 main 199 206 __________P___ -1 19.8013 119.356 4 12 287
1890284N14128 1890 35 WP MM NOT_NAMED 1890-10-12 03:00:00 NR 19.9579 118.720 main 268 268 __________P___ -1 19.9579 118.720 4 12 284
1890284N14128 1890 35 WP MM NOT_NAMED 1890-10-12 04:00:00 NR 20.0000 118.500 main 284 284 __________O___ -1 20.0000 118.500 4 13 281
1890284N14128 1890 35 WP MM NOT_NAMED 1890-10-12 06:00:00 NR 20.0805 118.045 main 332 313 __________P___ -1 20.0805 118.045 4 13 278
1890284N14128 1890 35 WP MM NOT_NAMED 1890-10-12 09:00:00 NR 20.1639 117.331 main 313 291 __________P___ -1 20.1639 117.331 4 14 275
1890284N14128 1890 35 WP MM NOT_NAMED 1890-10-12 12:00:00 NR 20.2051 116.594 main 291 273 __________P___ -1 20.2051 116.594 4 14 272
1890284N14128 1890 35 WP MM NOT_NAMED 1890-10-12 15:00:00 NR 20.2073 115.848 main 273 267 __________P___ -1 20.2073 115.848 4 14 270
1890284N14128 1890 35 WP MM NOT_NAMED 1890-10-12 16:00:00 NR 20.2000 115.600 main 267 249 __________O___ -1 20.2000 115.600 4 14 268
1890284N14128 1890 35 WP MM NOT_NAMED 1890-10-12 18:00:00 NR 20.1886 115.109 main 249 235 __________P___ -1 20.1886 115.109 4 14 267
1890284N14128 1890 35 WP MM NOT_NAMED 1890-10-12 21:00:00 NR 20.1406 114.372 main 246 210 __________P___ -1 20.1406 114.372 4 14 265
1890284N14128 1890 35 WP MM NOT_NAMED 1890-10-13 00:00:00 NR 20.0582 113.643 main 210 201 __________P___ -1 20.0582 113.643 4 14 262
1890284N14128 1890 35 WP MM NOT_NAMED 1890-10-13 03:00:00 NR 19.9444 112.932 main 201 181 __________P___ -1 19.9444 112.932 4 14 260
1890284N14128 1890 35 WP MM NOT_NAMED 1890-10-13 04:00:00 NR 19.9000 112.700 main 181 127 __________O___ -1 19.9000 112.700 4 13 258
1890284N14128 1890 35 WP MM NOT_NAMED 1890-10-13 06:00:00 NR 19.8132 112.250 main 127 63 __________P___ -1 19.8132 112.250 4 13 257
1890284N14128 1890 35 WP MM NOT_NAMED 1890-10-13 09:00:00 NR 19.6586 111.593 main 63 10 __________P___ -1 19.6586 111.593 4 13 255
1890284N14128 1890 35 WP MM NOT_NAMED 1890-10-13 12:00:00 NR 19.4775 110.951 main 10 0 __________P___ -1 19.4775 110.951 4 13 252
1890284N14128 1890 35 WP MM NOT_NAMED 1890-10-13 15:00:00 NR 19.2729 110.313 main 0 0 __________P___ -1 19.2729 110.313 4 13 251
1890284N14128 1890 35 WP MM NOT_NAMED 1890-10-13 16:00:00 NR 19.2000 110.100 main 0 0 __________O___ -1 19.2000 110.100 4 13 250
1890284N14128 1890 35 WP MM NOT_NAMED 1890-10-13 18:00:00 NR 19.0478 109.671 main 0 0 __________P___ -1 19.0478 109.671 4 13 249
1890284N14128 1890 35 WP MM NOT_NAMED 1890-10-13 21:00:00 NR 18.8057 109.023 main 0 0 __________P___ -1 18.8057 109.023 4 13 248
1890284N14128 1890 35 WP MM NOT_NAMED 1890-10-14 00:00:00 NR 18.5512 108.371 main 31 42 __________P___ -1 18.5512 108.371 4 13 247
1890284N14128 1890 35 WP MM NOT_NAMED 1890-10-14 03:00:00 NR 18.2886 107.718 main 107 107 __________P___ -1 18.2886 107.718 4 13 247
1890284N14128 1890 35 WP MM NOT_NAMED 1890-10-14 04:00:00 NR 18.2000 107.500 main 110 __________O___ -1 18.2000 107.500 4 14 247

Digital Typhoon Data and Search

About IBTrACS Database

This database is a web-friendly format of International Best Track Archive for Climate Stewardship (IBTrACS), a global best track data archive curated by NOAA dating back to 1842.

Updated: 2021-11-26